Time;durP1;ratioP1;P1;durP2;ratioP2;P2;SDS_P1;SDS_P2;PMS_P1;PMS_P2;Temp;Humidity;BMP_temperature;BMP_pressure;BME280_temperature;BME280_humidity;BME280_pressure;Samples;Min_cycle;Max_cycle;Signal;HPM_P1;HPM_P2
2023/06/17 00:01:53;;;;;;;9.87;6.93;;;;;;;;;;797704;176;817707;-70
2023/06/17 00:04:18;;;;;;;8.03;5.90;;;;;;;;;;787868;174;850760;-69
2023/06/17 00:06:44;;;;;;;12.40;6.73;;;;;;;;;;792406;175;881936;-68
2023/06/17 00:09:10;;;;;;;15.50;6.83;;;;;;;;;;786236;177;1019260;-69
2023/06/17 00:11:36;;;;;;;10.13;6.70;;;;;;;;;;792900;175;918191;-61
2023/06/17 00:14:02;;;;;;;7.10;5.80;;;;;;;;;;787266;174;915233;-62
2023/06/17 00:16:28;;;;;;;8.40;6.80;;;;;;;;;;793245;176;919054;-61
2023/06/17 00:18:53;;;;;;;10.37;7.00;;;;;;;;;;798564;174;818055;-70
2023/06/17 00:21:19;;;;;;;9.43;7.00;;;;;;;;;;788922;174;918869;-61
2023/06/17 00:23:45;;;;;;;7.57;6.00;;;;;;;;;;792993;174;817454;-69
2023/06/17 00:26:11;;;;;;;8.20;6.90;;;;;;;;;;796893;175;921772;-61
2023/06/17 00:28:37;;;;;;;9.53;5.80;;;;;;;;;;792120;175;919273;-71
2023/06/17 00:31:03;;;;;;;8.07;6.30;;;;;;;;;;787808;175;867548;-61
2023/06/17 00:33:28;;;;;;;8.90;6.10;;;;;;;;;;786853;174;919124;-70
2023/06/17 00:35:54;;;;;;;9.20;7.03;;;;;;;;;;793947;176;927854;-61
2023/06/17 00:38:20;;;;;;;10.13;6.33;;;;;;;;;;793057;175;839091;-70
2023/06/17 00:40:46;;;;;;;6.73;5.90;;;;;;;;;;791364;174;919371;-61
2023/06/17 00:43:12;;;;;;;6.85;6.12;;;;;;;;;;797962;175;911646;-59
2023/06/17 00:45:39;;;;;;;8.10;6.10;;;;;;;;;;790128;175;916429;-60
2023/06/17 00:48:04;;;;;;;9.90;6.62;;;;;;;;;;790631;174;939673;-69
2023/06/17 00:50:32;;;;;;;8.50;6.43;;;;;;;;;;797920;177;917443;-59
2023/06/17 00:52:56;;;;;;;6.13;4.97;;;;;;;;;;791079;175;917601;-68
2023/06/17 00:55:22;;;;;;;8.30;6.97;;;;;;;;;;790417;174;917174;-62
2023/06/17 00:57:47;;;;;;;9.70;7.07;;;;;;;;;;791753;174;924442;-68
2023/06/17 01:00:14;;;;;;;8.93;7.10;;;;;;;;;;793441;175;940287;-68
2023/06/17 01:02:40;;;;;;;9.47;6.73;;;;;;;;;;789501;174;923026;-70
2023/06/17 01:05:10;;;;;;;9.43;7.93;;;;;;;;;;789892;174;919329;-59
2023/06/17 01:07:42;;;;;;;9.83;6.23;;;;;;;;;;793465;175;915266;-70
2023/06/17 01:10:09;;;;;;;10.30;7.07;;;;;;;;;;797832;174;917781;-60
2023/06/17 01:12:35;;;;;;;7.90;7.07;;;;;;;;;;791737;174;922094;-70
2023/06/17 01:15:01;;;;;;;17.93;5.93;;;;;;;;;;791259;176;819620;-69
2023/06/17 01:17:28;;;;;;;11.13;5.73;;;;;;;;;;796743;176;928880;-70
2023/06/17 01:19:53;;;;;;;8.90;5.90;;;;;;;;;;787331;177;920446;-60
2023/06/17 01:22:19;;;;;;;20.53;5.97;;;;;;;;;;791117;176;919388;-70
2023/06/17 01:24:45;;;;;;;8.53;6.53;;;;;;;;;;795368;174;822422;-60
2023/06/17 01:27:11;;;;;;;12.07;7.03;;;;;;;;;;788937;174;919268;-60
2023/06/17 01:29:39;;;;;;;14.43;6.53;;;;;;;;;;790295;174;911376;-69
2023/06/17 01:32:03;;;;;;;14.00;6.90;;;;;;;;;;790726;175;919055;-60
2023/06/17 01:34:28;;;;;;;10.20;6.40;;;;;;;;;;791983;176;920012;-60
2023/06/17 01:36:54;;;;;;;6.93;5.83;;;;;;;;;;791810;174;919333;-71
2023/06/17 01:39:20;;;;;;;7.20;5.85;;;;;;;;;;795763;174;817469;-60
2023/06/17 01:41:46;;;;;;;10.20;6.70;;;;;;;;;;796972;175;807387;-70
2023/06/17 01:44:12;;;;;;;10.80;7.77;;;;;;;;;;793333;175;816449;-71
2023/06/17 01:46:38;;;;;;;10.52;6.22;;;;;;;;;;791614;174;918935;-71
2023/06/17 01:49:04;;;;;;;9.07;6.43;;;;;;;;;;793376;173;918360;-60
2023/06/17 01:51:29;;;;;;;8.70;6.47;;;;;;;;;;791995;174;917504;-60
2023/06/17 01:53:55;;;;;;;12.33;6.30;;;;;;;;;;792970;174;918959;-71
2023/06/17 01:56:22;;;;;;;8.35;6.90;;;;;;;;;;795321;175;869244;-69
2023/06/17 01:58:48;;;;;;;10.43;7.00;;;;;;;;;;792134;177;917629;-60
2023/06/17 02:01:13;;;;;;;8.73;6.67;;;;;;;;;;789401;176;918799;-71
2023/06/17 02:03:42;;;;;;;8.70;7.03;;;;;;;;;;789226;175;919414;-61
2023/06/17 02:06:05;;;;;;;9.87;7.80;;;;;;;;;;796215;176;918661;-60
2023/06/17 02:08:34;;;;;;;11.00;7.10;;;;;;;;;;789948;174;917426;-60
2023/06/17 02:10:57;;;;;;;10.93;8.23;;;;;;;;;;788024;175;918979;-60
2023/06/17 02:13:23;;;;;;;10.43;6.90;;;;;;;;;;796137;175;919192;-60
2023/06/17 02:15:48;;;;;;;8.70;7.13;;;;;;;;;;788537;176;918464;-72
2023/06/17 02:18:14;;;;;;;12.70;7.10;;;;;;;;;;792722;175;920469;-60
2023/06/17 02:20:40;;;;;;;8.53;6.80;;;;;;;;;;796272;177;917518;-61
2023/06/17 02:23:06;;;;;;;10.00;6.93;;;;;;;;;;789601;175;919276;-72
2023/06/17 02:25:32;;;;;;;8.57;6.20;;;;;;;;;;790250;176;921500;-73
2023/06/17 02:27:58;;;;;;;7.63;6.30;;;;;;;;;;790841;176;919231;-72
2023/06/17 02:30:23;;;;;;;14.57;6.77;;;;;;;;;;796478;176;857755;-72
2023/06/17 02:32:49;;;;;;;9.87;7.93;;;;;;;;;;789112;174;920993;-71
2023/06/17 02:35:15;;;;;;;8.93;7.13;;;;;;;;;;790820;174;915947;-72
2023/06/17 02:37:41;;;;;;;12.40;6.63;;;;;;;;;;797237;174;920051;-61
2023/06/17 02:40:08;;;;;;;13.77;7.30;;;;;;;;;;790900;174;887892;-73
2023/06/17 02:42:33;;;;;;;10.53;6.90;;;;;;;;;;791271;176;918641;-73
2023/06/17 02:44:59;;;;;;;9.70;6.95;;;;;;;;;;794415;175;915265;-73
2023/06/17 02:47:25;;;;;;;10.20;7.27;;;;;;;;;;792389;176;820785;-74
2023/06/17 02:49:51;;;;;;;12.37;7.37;;;;;;;;;;793056;174;919032;-60
2023/06/17 02:52:17;;;;;;;12.00;8.07;;;;;;;;;;795536;174;794717;-71
2023/06/17 02:54:43;;;;;;;10.93;7.30;;;;;;;;;;796550;175;918955;-73
2023/06/17 02:57:08;;;;;;;11.17;7.67;;;;;;;;;;789023;174;922169;-72
2023/06/17 02:59:36;;;;;;;11.13;7.83;;;;;;;;;;793147;174;919455;-72
2023/06/17 03:02:00;;;;;;;9.83;7.00;;;;;;;;;;795478;175;924773;-60
2023/06/17 03:04:34;;;;;;;9.70;6.87;;;;;;;;;;789686;174;919595;-60
2023/06/17 03:06:52;;;;;;;12.23;6.60;;;;;;;;;;793140;174;845931;-74
2023/06/17 03:09:17;;;;;;;11.50;7.50;;;;;;;;;;797443;174;915455;-74
2023/06/17 03:11:43;;;;;;;8.87;6.90;;;;;;;;;;788738;174;920754;-60
2023/06/17 03:14:09;;;;;;;9.10;7.80;;;;;;;;;;792377;175;902642;-60
2023/06/17 03:16:36;;;;;;;9.00;7.00;;;;;;;;;;787799;176;919320;-74
2023/06/17 03:19:01;;;;;;;14.50;7.43;;;;;;;;;;792472;176;912985;-74
2023/06/17 03:21:30;;;;;;;13.33;7.77;;;;;;;;;;790853;174;1021317;-73
2023/06/17 03:23:56;;;;;;;13.50;8.90;;;;;;;;;;792850;174;920161;-73
2023/06/17 03:26:22;;;;;;;11.60;8.17;;;;;;;;;;796107;174;846220;-76
2023/06/17 03:28:47;;;;;;;9.07;7.10;;;;;;;;;;791072;174;846466;-60
2023/06/17 03:31:18;;;;;;;12.30;8.40;;;;;;;;;;790422;174;920252;-74
2023/06/17 03:33:39;;;;;;;14.00;9.43;;;;;;;;;;796749;176;920043;-76
2023/06/17 03:36:06;;;;;;;14.17;8.23;;;;;;;;;;791101;175;918831;-61
2023/06/17 03:38:31;;;;;;;16.50;8.37;;;;;;;;;;791601;175;917846;-60
2023/06/17 03:40:57;;;;;;;9.33;8.27;;;;;;;;;;792745;176;937134;-74
2023/06/17 03:43:23;;;;;;;11.37;8.00;;;;;;;;;;792081;175;919275;-61
2023/06/17 03:45:49;;;;;;;8.67;7.43;;;;;;;;;;791707;176;883794;-75
2023/06/17 03:48:15;;;;;;;9.13;7.80;;;;;;;;;;792223;174;919297;-61
2023/06/17 03:50:40;;;;;;;11.05;7.43;;;;;;;;;;797118;175;816830;-61
2023/06/17 03:53:08;;;;;;;11.90;7.97;;;;;;;;;;793464;174;920124;-75
2023/06/17 03:55:32;;;;;;;13.77;8.67;;;;;;;;;;789358;176;941085;-61
2023/06/17 03:57:59;;;;;;;10.30;8.10;;;;;;;;;;797194;175;918145;-61
2023/06/17 04:00:24;;;;;;;14.50;7.60;;;;;;;;;;794169;175;917890;-76
2023/06/17 04:02:50;;;;;;;11.90;8.20;;;;;;;;;;794568;174;919308;-75
2023/06/17 04:05:17;;;;;;;13.73;8.80;;;;;;;;;;790393;175;919402;-61
2023/06/17 04:07:42;;;;;;;14.47;7.87;;;;;;;;;;790935;176;918525;-61
2023/06/17 04:10:08;;;;;;;12.80;8.90;;;;;;;;;;794737;174;816077;-60
2023/06/17 04:12:33;;;;;;;19.62;10.02;;;;;;;;;;791638;175;919282;-75
2023/06/17 04:14:59;;;;;;;12.13;9.70;;;;;;;;;;796941;176;919484;-75
2023/06/17 04:17:25;;;;;;;11.47;8.70;;;;;;;;;;789593;175;933764;-60
2023/06/17 04:19:54;;;;;;;13.45;10.35;;;;;;;;;;790803;175;1013305;-75
2023/06/17 04:22:17;;;;;;;15.50;9.07;;;;;;;;;;797247;174;908655;-76
2023/06/17 04:24:42;;;;;;;14.77;9.07;;;;;;;;;;793762;174;817908;-75
2023/06/17 04:27:10;;;;;;;14.75;9.98;;;;;;;;;;791945;174;861829;-61
2023/06/17 04:29:36;;;;;;;17.10;12.30;;;;;;;;;;794078;174;920568;-72
2023/06/17 04:32:01;;;;;;;16.50;11.43;;;;;;;;;;791843;175;887728;-61
2023/06/17 04:34:26;;;;;;;15.77;11.00;;;;;;;;;;790661;174;894448;-61
2023/06/17 04:36:57;;;;;;;19.63;11.07;;;;;;;;;;791952;174;918995;-61
2023/06/17 04:39:25;;;;;;;14.57;11.10;;;;;;;;;;796948;174;922059;-61
2023/06/17 04:41:50;;;;;;;14.00;10.80;;;;;;;;;;789559;175;930062;-61
2023/06/17 04:44:16;;;;;;;13.90;10.10;;;;;;;;;;788873;174;921509;-61
2023/06/17 04:46:43;;;;;;;14.80;10.93;;;;;;;;;;790570;175;918742;-70
2023/06/17 04:49:08;;;;;;;11.60;9.40;;;;;;;;;;790954;177;961810;-72
2023/06/17 04:51:38;;;;;;;13.30;10.77;;;;;;;;;;789442;174;925603;-72
2023/06/17 04:54:00;;;;;;;14.93;11.07;;;;;;;;;;788221;174;908807;-61
2023/06/17 04:56:26;;;;;;;15.40;9.47;;;;;;;;;;797151;177;875596;-71
2023/06/17 04:58:52;;;;;;;11.33;8.70;;;;;;;;;;790534;174;919012;-71
2023/06/17 05:01:18;;;;;;;12.03;8.50;;;;;;;;;;790613;177;920068;-71
2023/06/17 05:03:43;;;;;;;14.30;9.20;;;;;;;;;;795595;175;817835;-61
2023/06/17 05:06:09;;;;;;;11.10;9.32;;;;;;;;;;791047;174;934881;-61
2023/06/17 05:08:35;;;;;;;11.87;9.07;;;;;;;;;;789847;174;910761;-61
2023/06/17 05:11:01;;;;;;;11.60;8.60;;;;;;;;;;795143;174;915620;-70
2023/06/17 05:13:27;;;;;;;15.85;9.98;;;;;;;;;;793055;174;914629;-71
2023/06/17 05:15:53;;;;;;;12.80;8.00;;;;;;;;;;793543;175;918365;-70
2023/06/17 05:18:18;;;;;;;12.43;9.30;;;;;;;;;;791858;174;932649;-69
2023/06/17 05:20:44;;;;;;;11.17;8.27;;;;;;;;;;797298;174;845415;-59
2023/06/17 05:23:10;;;;;;;11.33;8.50;;;;;;;;;;788573;175;953069;-72
2023/06/17 05:25:36;;;;;;;11.10;8.80;;;;;;;;;;791013;174;907208;-60
2023/06/17 05:28:05;;;;;;;8.83;7.93;;;;;;;;;;797515;175;917509;-68
2023/06/17 05:30:28;;;;;;;14.23;7.77;;;;;;;;;;790945;175;918664;-69
2023/06/17 05:32:53;;;;;;;12.63;7.65;;;;;;;;;;791078;176;919227;-59
2023/06/17 05:35:19;;;;;;;10.57;7.97;;;;;;;;;;797197;175;918778;-59
2023/06/17 05:37:45;;;;;;;10.23;8.37;;;;;;;;;;791243;176;918573;-69
2023/06/17 05:40:11;;;;;;;12.40;7.60;;;;;;;;;;792349;174;848585;-68
2023/06/17 05:42:37;;;;;;;11.10;7.37;;;;;;;;;;791811;174;835021;-68
2023/06/17 05:45:03;;;;;;;8.40;7.50;;;;;;;;;;793843;176;816514;-59
2023/06/17 05:47:29;;;;;;;8.97;7.80;;;;;;;;;;790718;174;818156;-70
2023/06/17 05:49:55;;;;;;;16.33;9.73;;;;;;;;;;791301;174;819245;-60
2023/06/17 05:52:20;;;;;;;10.40;8.87;;;;;;;;;;796570;176;919647;-60
2023/06/17 05:54:46;;;;;;;9.73;6.90;;;;;;;;;;790708;175;919800;-69
2023/06/17 05:57:12;;;;;;;10.80;8.43;;;;;;;;;;790981;174;919003;-68
2023/06/17 05:59:38;;;;;;;10.20;7.63;;;;;;;;;;795429;175;920894;-69
2023/06/17 06:02:04;;;;;;;8.93;7.13;;;;;;;;;;791284;174;919080;-68
2023/06/17 06:04:30;;;;;;;11.03;7.40;;;;;;;;;;790265;174;918576;-67
2023/06/17 06:06:56;;;;;;;10.65;7.72;;;;;;;;;;795748;174;896192;-67
2023/06/17 06:09:22;;;;;;;7.87;6.50;;;;;;;;;;792128;177;816038;-67
2023/06/17 06:11:48;;;;;;;9.30;7.63;;;;;;;;;;794257;175;816374;-68
2023/06/17 06:14:14;;;;;;;10.30;7.53;;;;;;;;;;790285;175;850416;-69
2023/06/17 06:16:39;;;;;;;10.23;8.23;;;;;;;;;;795751;177;905966;-60
2023/06/17 06:19:05;;;;;;;10.03;8.00;;;;;;;;;;792557;174;919164;-68
2023/06/17 06:21:31;;;;;;;13.57;7.90;;;;;;;;;;792679;174;905597;-68
2023/06/17 06:23:57;;;;;;;12.33;7.40;;;;;;;;;;796222;174;911873;-67
2023/06/17 06:26:23;;;;;;;10.90;7.90;;;;;;;;;;792896;174;908921;-67
2023/06/17 06:28:49;;;;;;;10.50;7.62;;;;;;;;;;793317;176;913628;-59
2023/06/17 06:31:14;;;;;;;8.23;7.03;;;;;;;;;;797779;174;937619;-59
2023/06/17 06:33:40;;;;;;;8.93;7.17;;;;;;;;;;790750;174;918515;-66
2023/06/17 06:36:06;;;;;;;9.23;6.40;;;;;;;;;;792117;174;919376;-67
2023/06/17 06:38:32;;;;;;;9.10;7.40;;;;;;;;;;789283;174;920683;-60
2023/06/17 06:40:58;;;;;;;18.10;7.70;;;;;;;;;;796483;174;916020;-59
2023/06/17 06:43:24;;;;;;;9.30;7.50;;;;;;;;;;793908;174;815396;-59
2023/06/17 06:45:50;;;;;;;9.50;6.70;;;;;;;;;;791695;174;916566;-67
2023/06/17 06:48:15;;;;;;;9.57;6.77;;;;;;;;;;796882;177;919515;-60
2023/06/17 06:50:41;;;;;;;9.73;6.80;;;;;;;;;;792359;174;918863;-70
2023/06/17 06:53:07;;;;;;;10.63;6.77;;;;;;;;;;790488;174;920009;-60
2023/06/17 06:55:33;;;;;;;10.90;7.03;;;;;;;;;;795906;174;919705;-69
2023/06/17 06:58:00;;;;;;;10.43;7.37;;;;;;;;;;789437;174;919049;-68
2023/06/17 07:00:25;;;;;;;9.37;6.87;;;;;;;;;;790510;174;915422;-60
2023/06/17 07:02:50;;;;;;;10.47;7.57;;;;;;;;;;789216;174;850690;-67
2023/06/17 07:05:16;;;;;;;8.80;7.17;;;;;;;;;;793276;176;915757;-60
2023/06/17 07:07:42;;;;;;;7.73;6.43;;;;;;;;;;791114;177;842852;-60
2023/06/17 07:10:08;;;;;;;10.27;6.60;;;;;;;;;;789611;175;871098;-59
2023/06/17 07:12:34;;;;;;;7.57;6.40;;;;;;;;;;798879;174;834951;-59
2023/06/17 07:15:00;;;;;;;7.93;6.40;;;;;;;;;;791078;174;913438;-68
2023/06/17 07:17:26;;;;;;;9.30;7.27;;;;;;;;;;791460;174;946570;-70
2023/06/17 07:19:52;;;;;;;10.63;8.07;;;;;;;;;;797149;174;920110;-69
2023/06/17 07:22:17;;;;;;;8.17;7.10;;;;;;;;;;792819;175;876385;-60
2023/06/17 07:24:43;;;;;;;9.03;7.70;;;;;;;;;;790702;174;918905;-60
2023/06/17 07:27:09;;;;;;;10.57;8.00;;;;;;;;;;790898;174;875874;-67
2023/06/17 07:29:35;;;;;;;8.38;6.37;;;;;;;;;;797644;174;906080;-60
2023/06/17 07:32:01;;;;;;;8.90;7.30;;;;;;;;;;790844;176;919215;-60
2023/06/17 07:34:27;;;;;;;8.10;6.43;;;;;;;;;;791597;175;918258;-70
2023/06/17 07:36:52;;;;;;;8.90;7.97;;;;;;;;;;797513;174;919117;-70
2023/06/17 07:39:19;;;;;;;7.63;6.63;;;;;;;;;;791462;174;919546;-68
2023/06/17 07:41:44;;;;;;;7.10;6.13;;;;;;;;;;791611;174;919360;-68
2023/06/17 07:44:10;;;;;;;9.25;6.25;;;;;;;;;;796781;175;848093;-62
2023/06/17 07:46:36;;;;;;;7.37;6.33;;;;;;;;;;790597;174;919098;-60
2023/06/17 07:49:02;;;;;;;9.57;7.10;;;;;;;;;;789460;175;916720;-69
2023/06/17 07:51:28;;;;;;;8.00;6.23;;;;;;;;;;798177;176;919308;-69
2023/06/17 07:53:53;;;;;;;8.70;6.07;;;;;;;;;;791972;174;917634;-61
2023/06/17 07:56:20;;;;;;;7.00;5.97;;;;;;;;;;789447;174;918720;-61
2023/06/17 07:58:46;;;;;;;8.07;6.23;;;;;;;;;;792689;174;816018;-69
2023/06/17 08:01:12;;;;;;;7.67;6.40;;;;;;;;;;799695;177;909988;-62
2023/06/17 08:03:37;;;;;;;7.90;6.37;;;;;;;;;;791315;174;919322;-60
2023/06/17 08:06:03;;;;;;;9.13;6.30;;;;;;;;;;794178;174;908447;-70
2023/06/17 08:08:29;;;;;;;7.67;5.60;;;;;;;;;;793188;175;915181;-70
2023/06/17 08:10:55;;;;;;;8.37;5.23;;;;;;;;;;791699;174;918629;-69
2023/06/17 08:13:21;;;;;;;6.97;6.28;;;;;;;;;;787798;174;918496;-69
2023/06/17 08:15:49;;;;;;;7.47;6.10;;;;;;;;;;795167;175;914597;-69
2023/06/17 08:18:12;;;;;;;8.13;5.70;;;;;;;;;;791689;174;916713;-60
2023/06/17 08:20:39;;;;;;;6.90;6.10;;;;;;;;;;789209;174;921517;-60
2023/06/17 08:23:05;;;;;;;6.93;5.77;;;;;;;;;;792720;174;914100;-60
2023/06/17 08:25:31;;;;;;;7.90;6.90;;;;;;;;;;795264;175;818706;-61
2023/06/17 08:27:56;;;;;;;7.20;5.20;;;;;;;;;;788658;176;918996;-68
2023/06/17 08:30:22;;;;;;;6.87;5.70;;;;;;;;;;790734;174;918522;-61
2023/06/17 08:32:48;;;;;;;8.30;6.00;;;;;;;;;;796574;175;919000;-69
2023/06/17 08:35:14;;;;;;;10.37;6.50;;;;;;;;;;788444;176;919682;-59
2023/06/17 08:37:39;;;;;;;7.53;5.90;;;;;;;;;;790621;174;920289;-61
2023/06/17 08:40:06;;;;;;;8.07;6.17;;;;;;;;;;797007;174;845146;-68
2023/06/17 08:42:32;;;;;;;7.80;6.30;;;;;;;;;;792394;174;817833;-70
2023/06/17 08:44:58;;;;;;;6.60;5.20;;;;;;;;;;794148;174;818004;-69
2023/06/17 08:47:24;;;;;;;6.93;5.40;;;;;;;;;;792991;174;896996;-61
2023/06/17 08:49:50;;;;;;;8.00;4.87;;;;;;;;;;793229;175;909589;-70
2023/06/17 08:52:16;;;;;;;7.23;4.73;;;;;;;;;;795992;175;919743;-60
2023/06/17 08:54:42;;;;;;;6.80;5.20;;;;;;;;;;794551;174;911097;-69
2023/06/17 08:57:07;;;;;;;6.40;5.03;;;;;;;;;;799012;175;918062;-70
2023/06/17 08:59:33;;;;;;;6.53;5.10;;;;;;;;;;789223;174;983010;-71
2023/06/17 09:01:59;;;;;;;6.80;5.50;;;;;;;;;;790591;175;929097;-60
2023/06/17 09:04:26;;;;;;;8.07;5.33;;;;;;;;;;795610;174;915986;-69
2023/06/17 09:06:52;;;;;;;6.20;5.20;;;;;;;;;;793607;174;919045;-61
2023/06/17 09:09:17;;;;;;;7.75;4.70;;;;;;;;;;791719;175;919418;-69
2023/06/17 09:11:44;;;;;;;8.00;5.03;;;;;;;;;;788402;177;919262;-61
2023/06/17 09:14:08;;;;;;;5.70;4.20;;;;;;;;;;791375;175;918983;-70
2023/06/17 09:16:34;;;;;;;8.17;4.90;;;;;;;;;;794805;174;860273;-60
2023/06/17 09:19:00;;;;;;;5.72;5.00;;;;;;;;;;792335;175;919341;-59
2023/06/17 09:21:26;;;;;;;6.70;4.83;;;;;;;;;;798900;175;900858;-69
2023/06/17 09:23:52;;;;;;;5.67;4.33;;;;;;;;;;791041;174;920049;-62
2023/06/17 09:26:18;;;;;;;6.63;5.00;;;;;;;;;;788134;174;920419;-60
2023/06/17 09:28:43;;;;;;;6.03;5.00;;;;;;;;;;795479;174;818294;-60
2023/06/17 09:31:09;;;;;;;5.20;4.57;;;;;;;;;;792297;175;785120;-71
2023/06/17 09:33:35;;;;;;;5.50;4.13;;;;;;;;;;793899;174;812683;-71
2023/06/17 09:36:03;;;;;;;7.87;5.33;;;;;;;;;;796405;175;942914;-71
2023/06/17 09:38:28;;;;;;;7.33;4.50;;;;;;;;;;797947;174;917685;-73
2023/06/17 09:40:54;;;;;;;5.03;4.50;;;;;;;;;;787200;176;1020873;-61
2023/06/17 09:43:20;;;;;;;5.53;4.80;;;;;;;;;;791240;174;918672;-62
2023/06/17 09:45:49;;;;;;;5.50;4.50;;;;;;;;;;795295;175;919146;-71
2023/06/17 09:48:11;;;;;;;5.63;4.50;;;;;;;;;;789723;177;920800;-61
2023/06/17 09:50:37;;;;;;;5.07;4.30;;;;;;;;;;788458;175;919536;-60
2023/06/17 09:53:05;;;;;;;5.03;4.47;;;;;;;;;;792458;175;918665;-69
2023/06/17 09:55:29;;;;;;;5.73;4.00;;;;;;;;;;793504;174;915317;-60
2023/06/17 09:57:55;;;;;;;6.27;4.27;;;;;;;;;;792729;173;919370;-71
2023/06/17 10:00:21;;;;;;;8.73;4.57;;;;;;;;;;798970;174;919404;-69
2023/06/17 10:02:46;;;;;;;7.00;6.17;;;;;;;;;;792432;173;919153;-69
2023/06/17 10:05:12;;;;;;;4.93;4.30;;;;;;;;;;793355;174;916077;-70
2023/06/17 10:07:38;;;;;;;5.57;4.97;;;;;;;;;;793234;174;920292;-69
2023/06/17 10:10:05;;;;;;;6.17;4.10;;;;;;;;;;792760;177;930239;-70
2023/06/17 10:12:31;;;;;;;5.53;4.40;;;;;;;;;;792242;174;847475;-70
2023/06/17 10:14:56;;;;;;;6.40;4.37;;;;;;;;;;792325;174;919696;-70
2023/06/17 10:17:22;;;;;;;5.80;4.67;;;;;;;;;;796642;174;922134;-71
2023/06/17 10:19:48;;;;;;;6.33;4.57;;;;;;;;;;791371;174;853138;-59
2023/06/17 10:22:14;;;;;;;8.13;4.77;;;;;;;;;;791103;175;918141;-69
2023/06/17 10:24:39;;;;;;;7.30;4.60;;;;;;;;;;795805;176;920848;-69
2023/06/17 10:27:06;;;;;;;5.83;4.83;;;;;;;;;;790224;177;920086;-70
2023/06/17 10:29:32;;;;;;;6.70;4.53;;;;;;;;;;791635;174;911749;-67
2023/06/17 10:32:01;;;;;;;6.83;4.30;;;;;;;;;;792081;174;919744;-59
2023/06/17 10:34:27;;;;;;;5.27;4.67;;;;;;;;;;794436;177;919526;-69
2023/06/17 10:36:57;;;;;;;5.10;4.50;;;;;;;;;;791361;174;914861;-60
2023/06/17 10:39:23;;;;;;;5.43;4.40;;;;;;;;;;789251;174;934668;-71
2023/06/17 10:41:51;;;;;;;5.53;4.93;;;;;;;;;;794589;174;930645;-59
2023/06/17 10:44:23;;;;;;;5.00;4.50;;;;;;;;;;794812;176;895407;-69
2023/06/17 10:46:49;;;;;;;5.80;4.97;;;;;;;;;;789966;177;817147;-69
2023/06/17 10:49:14;;;;;;;5.77;4.60;;;;;;;;;;789979;177;937344;-60
2023/06/17 10:51:46;;;;;;;6.03;5.10;;;;;;;;;;796787;174;815069;-68
2023/06/17 10:54:12;;;;;;;7.03;5.27;;;;;;;;;;793217;174;918488;-59
2023/06/17 10:56:44;;;;;;;5.47;4.90;;;;;;;;;;786022;174;908586;-69
2023/06/17 10:59:10;;;;;;;6.70;5.13;;;;;;;;;;789764;175;1021517;-71
2023/06/17 11:01:36;;;;;;;5.90;4.50;;;;;;;;;;797142;174;921658;-59
2023/06/17 11:04:01;;;;;;;7.30;5.10;;;;;;;;;;788460;174;918593;-60
2023/06/17 11:06:27;;;;;;;5.90;4.80;;;;;;;;;;790662;177;920030;-70
2023/06/17 11:08:53;;;;;;;7.13;5.87;;;;;;;;;;797200;174;918594;-60
2023/06/17 11:11:19;;;;;;;9.93;5.50;;;;;;;;;;794258;173;920319;-70
2023/06/17 11:13:47;;;;;;;7.47;4.60;;;;;;;;;;794681;174;918071;-70
2023/06/17 11:16:11;;;;;;;6.07;5.30;;;;;;;;;;788977;176;919219;-63
2023/06/17 11:18:38;;;;;;;6.90;5.27;;;;;;;;;;799138;174;817018;-64
2023/06/17 11:21:03;;;;;;;7.20;5.10;;;;;;;;;;795898;174;627391;-67
2023/06/17 11:23:29;;;;;;;6.43;5.22;;;;;;;;;;794396;176;714682;-61
2023/06/17 11:25:55;;;;;;;7.30;5.77;;;;;;;;;;798285;174;919068;-72
2023/06/17 11:28:21;;;;;;;5.20;4.67;;;;;;;;;;790543;175;916394;-71
2023/06/17 11:30:46;;;;;;;5.53;4.60;;;;;;;;;;788391;174;921807;-68
2023/06/17 11:33:12;;;;;;;4.97;4.47;;;;;;;;;;796367;175;921020;-69
2023/06/17 11:35:38;;;;;;;5.60;5.00;;;;;;;;;;791718;176;919546;-69
2023/06/17 11:38:04;;;;;;;6.30;4.80;;;;;;;;;;792580;175;908908;-61
2023/06/17 11:40:30;;;;;;;8.50;4.63;;;;;;;;;;789422;174;918443;-71
2023/06/17 11:42:57;;;;;;;6.57;5.23;;;;;;;;;;794278;176;919079;-71
2023/06/17 11:45:22;;;;;;;6.47;4.63;;;;;;;;;;791276;175;924601;-71
2023/06/17 11:47:48;;;;;;;10.90;4.63;;;;;;;;;;791287;177;818386;-59
2023/06/17 11:50:14;;;;;;;4.87;4.30;;;;;;;;;;794868;176;919117;-68
2023/06/17 11:52:40;;;;;;;5.63;5.00;;;;;;;;;;790846;175;918241;-63
2023/06/17 11:55:07;;;;;;;12.30;5.00;;;;;;;;;;788305;175;921352;-59
2023/06/17 11:57:32;;;;;;;7.90;5.10;;;;;;;;;;795308;175;918856;-58
2023/06/17 11:59:59;;;;;;;7.03;4.90;;;;;;;;;;787075;174;1627921;-70
2023/06/17 12:02:27;;;;;;;5.77;4.87;;;;;;;;;;789006;174;919415;-60
2023/06/17 12:04:53;;;;;;;8.30;4.40;;;;;;;;;;791339;175;933383;-60
2023/06/17 12:07:18;;;;;;;6.53;4.63;;;;;;;;;;796422;175;916948;-70
2023/06/17 12:09:48;;;;;;;7.10;4.90;;;;;;;;;;792151;174;919069;-68
2023/06/17 12:12:14;;;;;;;5.37;4.40;;;;;;;;;;789121;174;919237;-69
2023/06/17 12:14:40;;;;;;;6.40;4.80;;;;;;;;;;791776;174;917721;-68
2023/06/17 12:17:06;;;;;;;7.00;5.53;;;;;;;;;;790914;174;918686;-60
2023/06/17 12:19:32;;;;;;;6.70;4.37;;;;;;;;;;790158;175;919390;-60
2023/06/17 12:21:57;;;;;;;5.97;4.60;;;;;;;;;;791797;174;1021664;-59
2023/06/17 12:24:23;;;;;;;6.60;5.20;;;;;;;;;;798223;174;915400;-60
2023/06/17 12:26:49;;;;;;;5.80;4.50;;;;;;;;;;793231;174;915206;-70
2023/06/17 12:29:15;;;;;;;6.13;4.63;;;;;;;;;;792413;175;919911;-60
2023/06/17 12:31:42;;;;;;;7.07;4.50;;;;;;;;;;796867;176;912523;-61
2023/06/17 12:34:07;;;;;;;7.03;3.83;;;;;;;;;;789659;174;920612;-67
2023/06/17 12:36:33;;;;;;;4.82;3.75;;;;;;;;;;792375;174;915806;-60
2023/06/17 12:39:03;;;;;;;5.57;3.73;;;;;;;;;;797349;175;915634;-70
2023/06/17 12:41:24;;;;;;;5.20;3.73;;;;;;;;;;791508;174;791828;-59
2023/06/17 12:43:50;;;;;;;5.13;3.60;;;;;;;;;;790144;175;920241;-70
2023/06/17 12:46:17;;;;;;;6.17;4.07;;;;;;;;;;792875;174;904231;-59
2023/06/17 12:48:42;;;;;;;4.40;3.70;;;;;;;;;;791526;174;919011;-69
2023/06/17 12:51:08;;;;;;;6.23;3.67;;;;;;;;;;791645;174;917579;-70
2023/06/17 12:53:34;;;;;;;4.97;4.07;;;;;;;;;;792223;174;919179;-68
2023/06/17 12:55:59;;;;;;;4.83;3.80;;;;;;;;;;798013;174;816543;-59
2023/06/17 12:58:25;;;;;;;6.23;4.00;;;;;;;;;;789182;174;918506;-59
2023/06/17 13:00:51;;;;;;;15.60;4.20;;;;;;;;;;791964;175;914549;-60
2023/06/17 13:03:17;;;;;;;4.80;3.50;;;;;;;;;;797599;176;917389;-60
2023/06/17 13:05:43;;;;;;;4.67;3.50;;;;;;;;;;789946;176;893451;-60
2023/06/17 13:08:09;;;;;;;3.93;3.47;;;;;;;;;;790957;177;901254;-61
2023/06/17 13:10:35;;;;;;;4.20;3.10;;;;;;;;;;789870;175;919359;-59
2023/06/17 13:13:01;;;;;;;6.10;3.40;;;;;;;;;;792352;175;917998;-61
2023/06/17 13:15:29;;;;;;;4.40;3.70;;;;;;;;;;788969;174;845175;-61
2023/06/17 13:17:52;;;;;;;4.93;3.70;;;;;;;;;;789834;174;919398;-61
2023/06/17 13:20:18;;;;;;;5.27;4.03;;;;;;;;;;793306;176;918839;-60
2023/06/17 13:22:44;;;;;;;3.80;3.10;;;;;;;;;;789403;174;953226;-69
2023/06/17 13:25:10;;;;;;;5.70;3.30;;;;;;;;;;787995;177;918734;-61
2023/06/17 13:27:36;;;;;;;5.47;4.10;;;;;;;;;;795649;177;919163;-61
2023/06/17 13:30:01;;;;;;;5.07;3.87;;;;;;;;;;785758;174;940388;-71
2023/06/17 13:32:27;;;;;;;4.63;3.73;;;;;;;;;;789612;174;921794;-61
2023/06/17 13:34:53;;;;;;;6.30;3.77;;;;;;;;;;796451;175;920364;-73
2023/06/17 13:37:19;;;;;;;5.60;3.57;;;;;;;;;;789799;176;818083;-72
2023/06/17 13:39:45;;;;;;;4.60;3.80;;;;;;;;;;789936;176;917566;-70
2023/06/17 13:42:11;;;;;;;6.27;3.70;;;;;;;;;;794773;175;919341;-72
2023/06/17 13:44:37;;;;;;;7.23;3.97;;;;;;;;;;798927;174;817206;-71
2023/06/17 13:47:03;;;;;;;4.50;3.80;;;;;;;;;;790004;174;919457;-70
2023/06/17 13:49:30;;;;;;;4.60;3.90;;;;;;;;;;793293;176;809147;-60
2023/06/17 13:51:55;;;;;;;4.23;3.80;;;;;;;;;;796006;174;904240;-70
2023/06/17 13:54:21;;;;;;;5.60;3.53;;;;;;;;;;789609;177;920552;-62
2023/06/17 13:56:47;;;;;;;6.07;4.60;;;;;;;;;;790560;177;817660;-71
2023/06/17 13:59:13;;;;;;;6.37;3.63;;;;;;;;;;795399;175;868938;-72
2023/06/17 14:01:39;;;;;;;4.90;3.57;;;;;;;;;;789357;174;921087;-61
2023/06/17 14:04:04;;;;;;;6.47;3.90;;;;;;;;;;792851;174;814739;-62
2023/06/17 14:06:31;;;;;;;4.60;4.03;;;;;;;;;;791258;174;918448;-62
2023/06/17 14:08:57;;;;;;;7.20;3.90;;;;;;;;;;795346;176;903111;-71
2023/06/17 14:11:23;;;;;;;4.60;4.13;;;;;;;;;;791216;175;912932;-61
2023/06/17 14:13:48;;;;;;;5.20;4.53;;;;;;;;;;789009;176;914559;-61
2023/06/17 14:16:14;;;;;;;4.93;4.43;;;;;;;;;;796980;174;919048;-61
2023/06/17 14:18:40;;;;;;;4.90;3.93;;;;;;;;;;790976;174;918697;-59